Key West, FL

6:02 AM EST on February 07, 2016 (GMT -0500)
Big Coppitt Key Gulfside | | Change Station
CLOSE
Current Station
Personal Weather Station
Location: Key West, FL
Elevation: 31 ft
Nearby Weather Stations

Elev 31 ft 24.60 °N, 81.67 °W | Updated 5 minutes ago

Overcast
Overcast
62.4 °F
Feels Like 62.4 °F
N
7.3
Wind Variable Wind from NNW

Today
High -- | Low -- °F
--% Chance of Precip.
Yesterday
High -- | Low -- °F
Precip. -- in
Pressure 29.99 in
Visibility 10.0 miles
Clouds Mostly Cloudy 2300 ft
Mostly Cloudy 8000 ft
Dew Point 55 °F
Humidity 76%
Rainfall 0.00 in
Snow Depth Not available.
7:05 AM 6:15 PM
Waning Crescent, 2% visible
METAR KNQX 071053Z AUTO 35011KT 10SM BKN023 BKN080 17/14 A2999 RMK AO2 SLP153 T01720139 $
Pressure 29.99 in
Visibility 10.0 miles
Clouds Mostly Cloudy 2300 ft
Mostly Cloudy 8000 ft
Dew Point 55 °F
Humidity 76%
Rainfall 0.00 in
Snow Depth Not available.
7:05 AM 6:15 PM
Waning Crescent, 2% visible
METAR KNQX 071053Z AUTO 35011KT 10SM BKN023 BKN080 17/14 A2999 RMK AO2 SLP153 T01720139 $

10-Day Weather Forecast

Almanac

Astronomy

Feb. 07, 2016 Rise Set
Actual Time
Civil Twilight
Nautical Twilight
Astronomical Twilight
Moon
Length of Visible Light
Length of Day
Tomorrow will be .
, % of the Moon is Illuminated

Today's Extremes

State Highs State Lows

Community

WunderPhotos

Upload Photos

1,891,170 photos uploaded!

WunderBlog® & News

Nearby

Air Quality

  Air Quality AQ Index Pollutant
Not available.

Snow Depth

Station Depth Elevation

Earthquake Activity

City Distance Mag. Time & Date
Minimum magnitude displayed is 2.5.

Coastal Water Temperatures

Place Temperature

Stations

Nearby Weather Stations

Station Location Temp. Windchill Dew Point Humidity Wind Precip. Elev Updated Type
                   

Watches & Warnings

There are currently no watches in effect.